createdAt,value
2022-08-16T00:00:51.590Z,0
2022-08-16T00:02:35.299Z,0
2022-08-16T00:04:18.993Z,0
2022-08-16T00:06:02.712Z,0
2022-08-16T00:07:46.417Z,0
2022-08-16T00:09:30.098Z,0
2022-08-16T00:11:13.805Z,0
2022-08-16T00:12:57.510Z,0
2022-08-16T00:14:41.226Z,0
2022-08-16T00:16:24.934Z,0
2022-08-16T00:18:08.625Z,0
2022-08-16T00:19:52.338Z,0
2022-08-16T00:21:36.028Z,0
2022-08-16T00:23:19.745Z,0
2022-08-16T00:25:03.432Z,0
2022-08-16T00:26:47.140Z,0
2022-08-16T00:28:30.848Z,0
2022-08-16T00:30:14.541Z,0
2022-08-16T00:31:58.265Z,0
2022-08-16T00:33:41.934Z,0
2022-08-16T00:35:25.654Z,0
2022-08-16T00:37:09.417Z,0
2022-08-16T00:38:53.041Z,0
2022-08-16T00:40:36.738Z,0
2022-08-16T00:42:20.459Z,0
2022-08-16T00:44:04.148Z,0
2022-08-16T00:45:47.847Z,0
2022-08-16T00:47:31.544Z,0
2022-08-16T00:49:15.259Z,0
2022-08-16T00:50:58.947Z,0
2022-08-16T00:52:42.641Z,0
2022-08-16T00:54:26.354Z,0
2022-08-16T00:56:10.050Z,0
2022-08-16T00:57:53.762Z,0
2022-08-16T00:59:37.711Z,0
2022-08-16T01:01:21.154Z,0
2022-08-16T01:03:04.861Z,0
2022-08-16T01:04:48.567Z,0
2022-08-16T01:06:32.272Z,1
2022-08-16T01:08:15.976Z,0
2022-08-16T01:09:59.682Z,0
2022-08-16T01:11:43.396Z,0
2022-08-16T01:13:27.081Z,0
2022-08-16T01:15:10.770Z,0
2022-08-16T01:16:54.498Z,0
2022-08-16T01:18:38.201Z,0
2022-08-16T01:20:21.891Z,0
2022-08-16T01:22:05.599Z,0
2022-08-16T01:23:49.287Z,0
2022-08-16T01:25:32.999Z,0
2022-08-16T01:27:16.708Z,0
2022-08-16T01:29:00.397Z,0
2022-08-16T01:30:44.101Z,0
2022-08-16T01:32:27.806Z,0
2022-08-16T01:34:11.510Z,0
2022-08-16T01:35:55.202Z,0
2022-08-16T01:37:38.894Z,0
2022-08-16T01:39:22.615Z,0
2022-08-16T01:41:06.312Z,0
2022-08-16T01:42:50.011Z,0
2022-08-16T01:44:33.709Z,0
2022-08-16T01:46:17.416Z,0
2022-08-16T01:48:01.118Z,0
2022-08-16T01:49:44.813Z,0
2022-08-16T01:51:28.498Z,0
2022-08-16T01:53:12.207Z,1
2022-08-16T01:54:55.927Z,0
2022-08-16T01:56:39.641Z,0
2022-08-16T01:58:23.325Z,0
2022-08-16T02:00:07.014Z,0
2022-08-16T02:01:50.740Z,0
2022-08-16T02:03:34.435Z,0
2022-08-16T02:05:18.130Z,0
2022-08-16T02:07:01.834Z,0
2022-08-16T02:08:45.542Z,0
2022-08-16T02:10:29.254Z,0
2022-08-16T02:12:12.935Z,0
2022-08-16T02:13:56.642Z,0
2022-08-16T02:15:40.355Z,0
2022-08-16T02:17:24.058Z,0
2022-08-16T02:19:07.731Z,0
2022-08-16T02:20:51.463Z,0
2022-08-16T02:22:35.143Z,0
2022-08-16T02:24:18.853Z,0
2022-08-16T02:26:02.547Z,0
2022-08-16T02:27:46.254Z,0
2022-08-16T02:29:29.949Z,0
2022-08-16T02:31:13.646Z,0
2022-08-16T02:32:57.336Z,0
2022-08-16T02:34:41.050Z,0
2022-08-16T02:36:24.761Z,0
2022-08-16T02:38:08.461Z,0
2022-08-16T02:39:52.147Z,0
2022-08-16T02:41:35.850Z,0
2022-08-16T02:43:19.563Z,0
2022-08-16T02:45:03.262Z,0
2022-08-16T02:46:46.957Z,0
2022-08-16T02:48:30.670Z,0
2022-08-16T02:50:14.369Z,0
2022-08-16T02:51:58.078Z,0
2022-08-16T02:53:41.781Z,0
2022-08-16T02:55:25.478Z,0
2022-08-16T02:57:09.170Z,0
2022-08-16T02:58:52.890Z,0
2022-08-16T03:00:36.593Z,0
2022-08-16T03:02:20.294Z,0
2022-08-16T03:04:03.993Z,0
2022-08-16T03:05:47.702Z,0
2022-08-16T03:07:31.407Z,0
2022-08-16T03:09:15.106Z,0
2022-08-16T03:10:58.812Z,0
2022-08-16T03:12:42.776Z,0
2022-08-16T03:14:26.201Z,1
2022-08-16T03:16:09.910Z,0
2022-08-16T03:17:53.612Z,0
2022-08-16T03:19:37.314Z,1
2022-08-16T03:21:21.026Z,0
2022-08-16T03:23:04.696Z,0
2022-08-16T03:24:48.411Z,0
2022-08-16T03:26:32.113Z,0
2022-08-16T03:28:15.826Z,0
2022-08-16T03:29:59.499Z,1
2022-08-16T03:31:43.210Z,1
2022-08-16T03:33:26.922Z,0
2022-08-16T03:35:10.615Z,1
2022-08-16T03:36:54.310Z,1
2022-08-16T03:38:38.012Z,1
2022-08-16T03:40:21.730Z,1
2022-08-16T03:42:05.442Z,1
2022-08-16T03:43:49.146Z,1
2022-08-16T03:45:32.817Z,2
2022-08-16T03:47:16.533Z,3
2022-08-16T03:49:00.253Z,4
2022-08-16T03:50:43.942Z,6
2022-08-16T03:52:27.635Z,8
2022-08-16T03:54:11.329Z,11
2022-08-16T03:55:55.043Z,14
2022-08-16T03:57:38.731Z,18
2022-08-16T03:59:22.425Z,23
2022-08-16T04:01:06.132Z,29
2022-08-16T04:02:49.825Z,35
2022-08-16T04:04:33.533Z,43
2022-08-16T04:06:17.239Z,50
2022-08-16T04:08:00.929Z,59
2022-08-16T04:09:44.647Z,69
2022-08-16T04:11:28.360Z,83
2022-08-16T04:13:12.059Z,96
2022-08-16T04:14:55.756Z,118
2022-08-16T04:16:39.447Z,151
2022-08-16T04:18:23.161Z,170
2022-08-16T04:20:06.858Z,170
2022-08-16T04:21:50.551Z,203
2022-08-16T04:23:34.244Z,245
2022-08-16T04:25:17.955Z,290
2022-08-16T04:27:01.664Z,353
2022-08-16T04:28:45.348Z,420
2022-08-16T04:30:29.060Z,493
2022-08-16T04:32:12.765Z,589
2022-08-16T04:33:56.497Z,693
2022-08-16T04:35:40.171Z,771
2022-08-16T04:37:23.873Z,775
2022-08-16T04:39:07.567Z,774
2022-08-16T04:40:51.318Z,774
2022-08-16T04:42:34.975Z,775
2022-08-16T04:44:18.669Z,775
2022-08-16T04:46:02.385Z,775
2022-08-16T04:47:46.078Z,774
2022-08-16T04:49:29.779Z,775
2022-08-16T04:51:13.467Z,775
2022-08-16T04:52:57.170Z,775
2022-08-16T04:54:40.882Z,775
2022-08-16T04:56:24.571Z,774
2022-08-16T04:58:08.273Z,775
2022-08-16T04:59:51.962Z,774
2022-08-16T05:01:35.682Z,775
2022-08-16T05:03:19.380Z,775
2022-08-16T05:05:03.072Z,775
2022-08-16T05:06:46.768Z,775
2022-08-16T05:08:30.486Z,775
2022-08-16T05:10:14.193Z,774
2022-08-16T05:11:57.870Z,775
2022-08-16T05:13:41.581Z,776
2022-08-16T05:15:25.282Z,775
2022-08-16T05:17:08.987Z,775
2022-08-16T05:18:52.693Z,776
2022-08-16T05:20:36.394Z,775
2022-08-16T05:22:20.085Z,775
2022-08-16T05:24:03.802Z,777
2022-08-16T05:25:47.493Z,776
2022-08-16T05:27:31.218Z,776
2022-08-16T05:29:14.912Z,777
2022-08-16T05:30:58.617Z,777
2022-08-16T05:32:42.321Z,775
2022-08-16T05:34:26.029Z,777
2022-08-16T05:36:09.743Z,776
2022-08-16T05:37:53.443Z,777
2022-08-16T05:39:37.138Z,776
2022-08-16T05:41:20.839Z,776
2022-08-16T05:43:04.537Z,777
2022-08-16T05:44:48.243Z,776
2022-08-16T05:46:31.963Z,776
2022-08-16T05:48:15.624Z,777
2022-08-16T05:49:59.332Z,776
2022-08-16T05:51:43.056Z,776
2022-08-16T05:53:26.761Z,776
2022-08-16T05:55:10.450Z,776
2022-08-16T05:56:54.142Z,777
2022-08-16T05:58:37.860Z,776
2022-08-16T06:00:21.560Z,776
2022-08-16T06:02:05.257Z,776
2022-08-16T06:03:48.950Z,776
2022-08-16T06:05:32.661Z,776
2022-08-16T06:07:16.387Z,776
2022-08-16T06:09:00.090Z,775
2022-08-16T06:10:43.764Z,776
2022-08-16T06:12:27.478Z,775
2022-08-16T06:14:11.176Z,776
2022-08-16T06:15:54.855Z,776
2022-08-16T06:17:38.559Z,776
2022-08-16T06:19:22.272Z,776
2022-08-16T06:21:06.001Z,776
2022-08-16T06:22:49.666Z,776
2022-08-16T06:24:33.377Z,776
2022-08-16T06:26:17.091Z,776
2022-08-16T06:28:00.797Z,776
2022-08-16T06:29:44.495Z,776
2022-08-16T06:31:28.208Z,777
2022-08-16T06:33:11.895Z,778
2022-08-16T06:34:55.589Z,778
2022-08-16T06:36:39.286Z,777
2022-08-16T06:38:22.982Z,778
2022-08-16T06:40:06.682Z,778
2022-08-16T06:41:50.397Z,776
2022-08-16T06:43:34.078Z,778
2022-08-16T06:45:17.793Z,779
2022-08-16T06:47:01.500Z,778
2022-08-16T06:48:45.211Z,777
2022-08-16T06:50:28.891Z,779
2022-08-16T06:52:12.611Z,778
2022-08-16T06:53:56.307Z,778
2022-08-16T06:55:40.012Z,776
2022-08-16T06:57:23.701Z,778
2022-08-16T06:59:07.411Z,779
2022-08-16T07:00:51.122Z,776
2022-08-16T07:02:34.821Z,775
2022-08-16T07:04:18.526Z,779
2022-08-16T07:06:02.223Z,779
2022-08-16T07:07:45.931Z,779
2022-08-16T07:09:29.649Z,777
2022-08-16T07:11:13.334Z,778
2022-08-16T07:12:57.034Z,779
2022-08-16T07:14:40.739Z,779
2022-08-16T07:16:24.443Z,776
2022-08-16T07:18:08.143Z,779
2022-08-16T07:19:51.862Z,780
2022-08-16T07:21:35.565Z,779
2022-08-16T07:23:19.277Z,777
2022-08-16T07:25:02.944Z,779
2022-08-16T07:26:46.665Z,780
2022-08-16T07:28:30.369Z,779
2022-08-16T07:30:14.055Z,777
2022-08-16T07:31:57.761Z,779
2022-08-16T07:33:41.473Z,779
2022-08-16T07:35:25.163Z,779
2022-08-16T07:37:08.874Z,777
2022-08-16T07:38:52.590Z,779
2022-08-16T07:40:36.272Z,779
2022-08-16T07:42:19.983Z,779
2022-08-16T07:44:03.679Z,778
2022-08-16T07:45:47.381Z,779
2022-08-16T07:47:31.082Z,778
2022-08-16T07:49:14.790Z,779
2022-08-16T07:50:58.483Z,780
2022-08-16T07:52:42.215Z,779
2022-08-16T07:54:25.884Z,780
2022-08-16T07:56:09.601Z,780
2022-08-16T07:57:53.335Z,779
2022-08-16T07:59:36.976Z,779
2022-08-16T08:01:20.692Z,780
2022-08-16T08:03:04.390Z,780
2022-08-16T08:04:48.093Z,779
2022-08-16T14:04:18.705Z,780
2022-08-16T14:06:01.706Z,780
2022-08-16T14:07:45.398Z,780
2022-08-16T14:09:29.102Z,780
2022-08-16T14:11:12.817Z,780
2022-08-16T14:12:56.483Z,780
2022-08-16T14:14:40.193Z,779
2022-08-16T14:16:23.902Z,779
2022-08-16T14:18:07.618Z,780
2022-08-16T14:19:51.286Z,780
2022-08-16T14:21:35.012Z,780
2022-08-16T14:23:18.722Z,780
2022-08-16T14:25:02.407Z,780
2022-08-16T14:26:46.107Z,780
2022-08-16T14:30:13.505Z,780
2022-08-16T14:31:57.225Z,779
2022-08-16T14:33:40.909Z,780
2022-08-16T14:35:24.611Z,779
2022-08-16T14:37:08.313Z,780
2022-08-16T14:38:52.016Z,780
2022-08-16T14:40:35.709Z,779
2022-08-16T14:42:19.423Z,780
2022-08-16T14:44:03.138Z,780
2022-08-16T14:45:46.818Z,780
2022-08-16T14:47:30.516Z,780
2022-08-16T14:49:14.223Z,779
2022-08-16T14:50:57.923Z,780
2022-08-16T14:52:41.639Z,777
2022-08-16T14:54:25.336Z,780
2022-08-16T14:56:09.031Z,780
2022-08-16T14:57:52.742Z,780
2022-08-16T14:59:36.433Z,780
2022-08-16T15:01:20.147Z,779
2022-08-16T15:03:03.848Z,780
2022-08-16T15:04:47.566Z,780
2022-08-16T15:06:31.261Z,779
2022-08-16T15:08:14.963Z,780
2022-08-16T15:09:59.548Z,780
2022-08-16T15:11:42.372Z,780
2022-08-16T15:13:26.053Z,780
2022-08-16T15:15:09.769Z,780
2022-08-16T15:16:53.470Z,780
2022-08-16T15:18:37.178Z,778
2022-08-16T15:20:20.863Z,779
2022-08-16T15:22:04.583Z,779
2022-08-16T15:23:48.280Z,780
2022-08-16T15:25:31.965Z,779
2022-08-16T15:27:15.675Z,780
2022-08-16T15:28:59.385Z,780
2022-08-16T15:30:43.088Z,780
2022-08-16T15:32:26.792Z,780
2022-08-16T15:34:10.477Z,780
2022-08-16T15:35:54.177Z,779
2022-08-16T15:37:37.884Z,780
2022-08-16T15:39:21.589Z,779
2022-08-16T15:41:05.281Z,780
2022-08-16T15:42:49.000Z,779
2022-08-16T15:44:32.683Z,779
2022-08-16T15:46:16.388Z,779
2022-08-16T15:48:00.087Z,780
2022-08-16T15:49:43.818Z,780
2022-08-16T15:51:27.479Z,781
2022-08-16T15:53:11.201Z,780
2022-08-16T15:54:54.905Z,780
2022-08-16T15:56:38.600Z,780
2022-08-16T15:58:22.296Z,779
2022-08-16T16:00:06.010Z,779
2022-08-16T16:01:49.701Z,780
2022-08-16T16:03:33.422Z,779
2022-08-16T16:05:17.109Z,780
2022-08-16T16:07:00.808Z,778
2022-08-16T16:08:44.502Z,779
2022-08-16T16:10:28.213Z,780
2022-08-16T16:12:11.931Z,780
2022-08-16T16:13:55.617Z,777
2022-08-16T16:15:39.325Z,780
2022-08-16T16:17:23.045Z,780
2022-08-16T16:19:06.733Z,780
2022-08-16T16:20:50.449Z,780
2022-08-16T16:22:34.129Z,779
2022-08-16T16:24:17.845Z,779
2022-08-16T16:26:01.543Z,779
2022-08-16T16:27:45.257Z,779
2022-08-16T16:29:28.962Z,779
2022-08-16T16:31:12.658Z,780
2022-08-16T16:32:56.373Z,780
2022-08-16T16:34:40.070Z,780
2022-08-16T16:36:23.784Z,779
2022-08-16T16:38:07.477Z,779
2022-08-16T16:39:51.187Z,780
2022-08-16T16:41:34.886Z,779
2022-08-16T16:43:18.579Z,779
2022-08-16T16:45:02.290Z,778
2022-08-16T16:46:45.989Z,780
2022-08-16T16:48:29.688Z,780
2022-08-16T16:50:13.414Z,779
2022-08-16T16:51:57.089Z,779
2022-08-16T16:53:40.810Z,780
2022-08-16T16:55:24.496Z,780
2022-08-16T16:57:08.212Z,779
2022-08-16T16:58:51.921Z,779
2022-08-16T17:00:35.631Z,780
2022-08-16T17:02:19.326Z,780
2022-08-16T17:04:03.030Z,779
2022-08-16T17:05:46.723Z,779
2022-08-16T17:07:30.436Z,779
2022-08-16T17:09:14.165Z,779
2022-08-16T17:10:57.827Z,780
2022-08-16T17:12:41.549Z,779
2022-08-16T17:14:25.251Z,779
2022-08-16T17:16:08.969Z,779
2022-08-16T17:17:52.677Z,779
2022-08-16T17:19:36.371Z,780
2022-08-16T17:21:20.062Z,780
2022-08-16T17:23:03.789Z,779
2022-08-16T17:24:47.470Z,780
2022-08-16T17:26:31.182Z,779
2022-08-16T17:28:14.899Z,779
2022-08-16T17:31:42.285Z,757
2022-08-16T17:33:26.008Z,742
2022-08-16T17:35:09.693Z,725
2022-08-16T17:47:15.624Z,620
2022-08-16T17:48:59.323Z,601
2022-08-16T17:50:43.006Z,581
2022-08-16T17:52:26.721Z,559
2022-08-16T17:54:10.432Z,542
2022-08-16T17:55:54.120Z,526
2022-08-16T17:57:37.821Z,508
2022-08-16T17:59:21.531Z,487
2022-08-16T18:01:05.230Z,468
2022-08-16T18:02:48.947Z,462
2022-08-16T18:04:32.624Z,451
2022-08-16T18:06:16.324Z,406
2022-08-16T18:08:00.044Z,380
2022-08-16T18:09:43.735Z,359
2022-08-16T18:11:27.424Z,342
2022-08-16T18:13:11.139Z,323
2022-08-16T18:14:54.858Z,300
2022-08-16T18:16:38.556Z,278
2022-08-16T18:18:22.236Z,254
2022-08-16T18:20:05.951Z,232
2022-08-16T18:21:49.659Z,208
2022-08-16T18:23:33.348Z,187
2022-08-16T18:25:17.054Z,166
2022-08-16T18:27:00.757Z,144
2022-08-16T18:28:44.452Z,127
2022-08-16T18:30:28.163Z,112
2022-08-16T18:32:11.859Z,96
2022-08-16T18:33:55.573Z,83
2022-08-16T18:35:39.282Z,71
2022-08-16T18:37:22.971Z,61
2022-08-16T18:39:06.663Z,50
2022-08-16T18:40:50.395Z,692
2022-08-16T18:42:34.089Z,675
2022-08-16T18:44:17.797Z,661
2022-08-16T18:46:01.477Z,653
2022-08-16T18:47:45.201Z,645
2022-08-16T18:49:28.879Z,638
2022-08-16T18:51:12.585Z,640
2022-08-16T18:52:56.282Z,632
2022-08-16T18:54:40.002Z,630
2022-08-16T18:56:23.704Z,629
2022-08-16T18:58:07.400Z,632
2022-08-16T18:59:51.098Z,625
2022-08-16T19:01:34.800Z,626
2022-08-16T19:03:18.519Z,623
2022-08-16T19:05:02.241Z,624
2022-08-16T19:06:45.904Z,627
2022-08-16T19:08:29.609Z,627
2022-08-16T19:10:13.307Z,626
2022-08-16T19:11:57.030Z,627
2022-08-16T19:13:40.705Z,1
2022-08-16T19:15:24.409Z,0
2022-08-16T19:17:08.114Z,0
2022-08-16T19:18:51.822Z,0
2022-08-16T19:20:35.500Z,0
2022-08-16T19:22:19.223Z,0
2022-08-16T19:24:02.915Z,0
2022-08-16T19:25:46.614Z,0
2022-08-16T19:27:30.314Z,0
2022-08-16T19:29:14.020Z,0
2022-08-16T19:30:57.728Z,1
2022-08-16T19:32:41.424Z,63
2022-08-16T19:34:25.121Z,0
2022-08-16T19:36:08.809Z,0
2022-08-16T19:37:52.526Z,0
2022-08-16T19:39:36.235Z,0
2022-08-16T19:41:19.929Z,0
2022-08-16T19:43:03.637Z,0
2022-08-16T19:44:47.329Z,0
2022-08-16T19:46:31.050Z,0
2022-08-16T19:48:14.741Z,0
2022-08-16T19:49:58.434Z,0
2022-08-16T19:51:42.153Z,0
2022-08-16T19:53:25.859Z,0
2022-08-16T19:55:09.548Z,0
2022-08-16T19:56:53.258Z,0
2022-08-16T19:58:36.946Z,0
2022-08-16T20:00:20.673Z,0
2022-08-16T20:02:04.347Z,0
2022-08-16T20:03:48.050Z,1
2022-08-16T20:05:31.782Z,0
2022-08-16T20:07:15.470Z,0
2022-08-16T20:08:59.191Z,0
2022-08-16T20:10:42.861Z,0
2022-08-16T20:12:26.567Z,0
2022-08-16T20:14:10.271Z,0
2022-08-16T20:15:53.981Z,0
2022-08-16T20:17:37.691Z,0
2022-08-16T20:19:21.375Z,0
2022-08-16T20:21:05.081Z,0
2022-08-16T20:22:48.775Z,0
2022-08-16T20:24:32.487Z,0
2022-08-16T20:26:16.179Z,0
2022-08-16T20:27:59.884Z,0
2022-08-16T20:29:43.596Z,0
2022-08-16T20:31:27.291Z,0
2022-08-16T20:33:10.996Z,0
2022-08-16T20:34:54.698Z,0
2022-08-16T20:36:38.404Z,0
2022-08-16T20:38:22.103Z,0
2022-08-16T20:40:05.793Z,0
2022-08-16T20:41:49.510Z,0
2022-08-16T20:43:33.203Z,0
2022-08-16T20:45:16.903Z,0
2022-08-16T20:47:00.608Z,0
2022-08-16T20:48:44.308Z,0
2022-08-16T20:50:28.006Z,0
2022-08-16T20:52:11.713Z,0
2022-08-16T20:53:55.435Z,0
2022-08-16T20:55:39.107Z,0
2022-08-16T20:57:22.813Z,0
2022-08-16T20:59:06.521Z,0
2022-08-16T21:00:50.230Z,0
2022-08-16T21:02:33.920Z,0
2022-08-16T21:04:17.615Z,0
2022-08-16T21:06:01.332Z,0
2022-08-16T21:07:45.020Z,0
2022-08-16T21:09:28.726Z,0
2022-08-16T21:11:12.435Z,0
2022-08-16T21:12:56.143Z,0
2022-08-16T21:14:39.839Z,0
2022-08-16T21:16:23.550Z,0
2022-08-16T21:18:07.243Z,0
2022-08-16T21:19:50.962Z,0
2022-08-16T21:21:34.661Z,0
2022-08-16T21:23:18.339Z,0
2022-08-16T21:25:02.056Z,0
2022-08-16T21:26:45.757Z,0
2022-08-16T21:28:29.448Z,0
2022-08-16T21:30:13.154Z,0
2022-08-16T21:31:56.850Z,0
2022-08-16T21:33:40.547Z,0
2022-08-16T21:35:24.272Z,0
2022-08-16T21:37:07.966Z,0
2022-08-16T21:38:51.666Z,0
2022-08-16T21:40:35.371Z,0
2022-08-16T21:42:19.054Z,0
2022-08-16T21:44:02.776Z,0
2022-08-16T21:45:46.464Z,0
2022-08-16T21:47:30.185Z,0
2022-08-16T21:49:13.869Z,0
2022-08-16T21:50:57.579Z,0
2022-08-16T21:52:41.260Z,0
2022-08-16T21:54:24.978Z,0
2022-08-16T21:56:08.669Z,0
2022-08-16T21:57:52.392Z,0
2022-08-16T21:59:36.066Z,0
2022-08-16T22:01:19.772Z,0
2022-08-16T22:03:03.469Z,0
2022-08-16T22:04:47.193Z,0
2022-08-16T22:06:30.905Z,0
2022-08-16T22:08:14.580Z,0
2022-08-16T22:09:58.277Z,0
2022-08-16T22:11:41.998Z,0
2022-08-16T22:13:25.682Z,0
2022-08-16T22:15:09.390Z,0
2022-08-16T22:16:53.088Z,0
2022-08-16T22:18:36.801Z,0
2022-08-16T22:20:20.510Z,0
2022-08-16T22:22:04.216Z,0
2022-08-16T22:23:47.909Z,0
2022-08-16T22:25:31.611Z,0
2022-08-16T22:27:15.299Z,0
2022-08-16T22:28:59.027Z,0
2022-08-16T22:30:42.721Z,0
2022-08-16T22:32:26.424Z,0
2022-08-16T22:34:10.126Z,0
2022-08-16T22:35:53.828Z,0
2022-08-16T22:37:37.547Z,0
2022-08-16T22:39:21.252Z,0
2022-08-16T22:41:04.946Z,0
2022-08-16T22:42:48.652Z,0
2022-08-16T22:44:32.359Z,0
2022-08-16T22:46:16.055Z,0
2022-08-16T22:47:59.781Z,1
2022-08-16T22:49:43.459Z,0
2022-08-16T22:51:27.163Z,0
2022-08-16T22:53:10.884Z,0
2022-08-16T22:54:54.589Z,0
2022-08-16T22:56:38.292Z,0
2022-08-16T22:58:21.988Z,0
2022-08-16T23:00:05.688Z,0
2022-08-16T23:01:49.411Z,0
2022-08-16T23:03:33.105Z,0
2022-08-16T23:05:16.819Z,0
2022-08-16T23:07:00.517Z,0
2022-08-16T23:08:44.234Z,0
2022-08-16T23:10:27.921Z,0
2022-08-16T23:12:11.639Z,0
2022-08-16T23:13:55.331Z,0
2022-08-16T23:15:39.070Z,0
2022-08-16T23:17:22.727Z,0
2022-08-16T23:19:06.437Z,0
2022-08-16T23:20:50.146Z,0
2022-08-16T23:22:33.853Z,0
2022-08-16T23:24:17.551Z,0
2022-08-16T23:26:01.251Z,0
2022-08-16T23:27:44.977Z,0
2022-08-16T23:29:28.661Z,0
2022-08-16T23:31:12.368Z,0
2022-08-16T23:32:56.071Z,0
2022-08-16T23:34:39.773Z,0
2022-08-16T23:36:23.491Z,0
2022-08-16T23:38:07.179Z,0
2022-08-16T23:39:50.868Z,0
2022-08-16T23:41:34.587Z,0
2022-08-16T23:43:18.278Z,0
2022-08-16T23:45:01.996Z,0
2022-08-16T23:46:45.693Z,1
2022-08-16T23:48:29.402Z,1
2022-08-16T23:50:13.096Z,0
2022-08-16T23:51:56.782Z,0
2022-08-16T23:53:40.479Z,0
2022-08-16T23:55:24.199Z,0
2022-08-16T23:57:07.895Z,0
2022-08-16T23:58:51.595Z,0
